GMME

Rabat-Salé Airport

Rabat, Morocco
METAR GMME 220930Z 05003KT 350V160 8000 BKN015 19/13 Q1014 NOSIG
Observed Flight Rules
May-22 @ 09:30 UTC (39 minutes ago) Marginal Visual Flight Rules
Wind Visibility Clouds
50° at 3 knots 7,998 meters
  • Broken at 1,500' AGL
Temperatures Readings
Current 19°C / 66°F
Dewpoint 13°C / 55°F
Humidity 68%
Altimeter 29.94" Hg
Pressure 1014 hPa
Elevation 75
METAR GMME 220930Z 05003KT 350V160 8000 BKN015 19/13 Q1014 NOSIG
Observed Flight Rules
May-22 @ 09:30 UTC
(39 minutes ago)
MVFR
Wind Visibility
50° at 3 knots 7,998 meters
Clouds
  • Broken at 1,500' AGL
Temperature Dewpoint
19°C / 66°F 13°C / 55°F
Humidity Altimeter Pressure
68% 29.94" Hg 1014 hPa